Time;durP1;ratioP1;P1;durP2;ratioP2;P2;SDS_P1;SDS_P2;PMS_P1;PMS_P2;Temp;Humidity;BMP_temperature;BMP_pressure;BME280_temperature;BME280_humidity;BME280_pressure;Samples;Min_cycle;Max_cycle;Signal;HPM_P1;HPM_P2
2023/03/04 00:04:12;;;;;;;37.85;23.60;;;17.70;64.60;;;;;;10533786;28;20123;-24
2023/03/04 00:09:15;;;;;;;38.40;21.40;;;17.50;64.70;;;;;;10534304;28;20036;-24
2023/03/04 00:14:17;;;;;;;31.88;19.27;;;17.70;64.10;;;;;;10527002;28;20068;-24
2023/03/04 00:19:18;;;;;;;37.47;19.45;;;17.50;64.00;;;;;;10523076;28;20541;-24
2023/03/04 00:24:23;;;;;;;30.17;18.88;;;17.20;65.80;;;;;;10516444;28;20140;-24
2023/03/04 00:29:25;;;;;;;30.13;15.93;;;17.60;63.80;;;;;;10532806;28;20465;-25
2023/03/04 00:34:27;;;;;;;26.70;17.00;;;17.50;63.30;;;;;;10533036;28;20052;-24
2023/03/04 00:39:30;;;;;;;27.13;16.17;;;17.60;63.70;;;;;;10535508;28;20131;-24
2023/03/04 00:44:33;;;;;;;29.67;16.83;;;17.90;62.00;;;;;;10526382;28;20044;-24
2023/03/04 00:49:36;;;;;;;28.40;14.60;;;17.00;63.50;;;;;;10523629;28;20052;-24
2023/03/04 00:54:39;;;;;;;26.15;15.55;;;17.40;63.60;;;;;;10522209;28;20136;-23
2023/03/04 00:59:42;;;;;;;25.33;15.02;;;16.90;66.50;;;;;;10512650;28;20522;-23
2023/03/04 01:04:44;;;;;;;15.88;9.70;;;17.50;63.40;;;;;;10526748;28;20036;-23
2023/03/04 01:09:47;;;;;;;22.43;13.43;;;17.00;63.30;;;;;;10533699;28;20132;-24
2023/03/04 01:14:49;;;;;;;22.05;13.02;;;17.60;61.30;;;;;;10526528;28;20052;-23
2023/03/04 01:19:51;;;;;;;23.10;13.43;;;17.50;63.30;;;;;;10529929;28;20073;-24
2023/03/04 01:24:54;;;;;;;21.30;10.05;;;17.60;62.60;;;;;;10524263;28;20435;-23
2023/03/04 01:29:57;;;;;;;16.13;10.80;;;16.60;67.70;;;;;;10523897;28;20091;-22
2023/03/04 01:34:58;;;;;;;20.98;11.80;;;16.80;67.70;;;;;;10533064;28;20071;-22
2023/03/04 01:40:02;;;;;;;21.70;12.90;;;17.30;64.30;;;;;;10531891;28;20101;-22
2023/03/04 01:45:05;;;;;;;20.67;11.85;;;17.30;63.80;;;;;;10533534;28;20094;-23
2023/03/04 01:50:13;;;;;;;16.30;8.32;;;17.10;65.00;;;;;;10530932;28;20111;-23
2023/03/04 01:55:18;;;;;;;19.83;12.20;;;16.80;65.30;;;;;;10520443;28;20161;-24
2023/03/04 02:00:25;;;;;;;18.95;10.95;;;17.30;63.90;;;;;;10523691;28;20523;-23
2023/03/04 02:05:28;;;;;;;16.50;10.25;;;17.00;64.20;;;;;;10519800;28;20055;-23
2023/03/04 02:10:31;;;;;;;22.45;10.70;;;16.80;66.40;;;;;;10524078;28;20143;-23
2023/03/04 02:15:34;;;;;;;18.45;9.93;;;15.90;71.20;;;;;;10516606;28;20076;-24
2023/03/04 02:20:42;;;;;;;19.60;10.00;;;15.90;73.30;;;;;;10521129;28;20052;-24
2023/03/04 02:25:50;;;;;;;18.08;9.68;;;15.40;60.50;;;;;;10536214;28;20046;-23
2023/03/04 02:30:53;;;;;;;12.85;7.25;;;17.00;65.70;;;;;;10518566;28;20126;-26
2023/03/04 02:35:55;;;;;;;16.40;8.40;;;16.70;64.40;;;;;;10528576;28;20091;-25
2023/03/04 02:40:58;;;;;;;15.77;9.32;;;16.10;61.00;;;;;;10509375;28;20044;-26
2023/03/04 02:46:01;;;;;;;16.70;8.98;;;16.60;64.90;;;;;;10524611;28;20431;-26
2023/03/04 02:51:03;;;;;;;13.90;7.90;;;17.20;64.10;;;;;;10516363;28;20036;-23
2023/03/04 02:56:05;;;;;;;14.37;7.00;;;17.20;63.60;;;;;;10524150;28;20048;-23
2023/03/04 03:01:08;;;;;;;14.52;8.02;;;17.20;63.30;;;;;;10511763;28;20117;-22
2023/03/04 03:06:10;;;;;;;11.40;6.53;;;17.40;61.90;;;;;;10516018;28;20040;-23
2023/03/04 03:11:12;;;;;;;9.80;5.78;;;17.50;61.70;;;;;;10521013;28;20036;-27
2023/03/04 03:16:16;;;;;;;12.88;6.93;;;17.40;60.50;;;;;;10528300;28;20051;-24
2023/03/04 03:21:18;;;;;;;9.80;6.60;;;16.50;65.20;;;;;;10507170;28;20040;-22
2023/03/04 03:26:20;;;;;;;11.98;6.93;;;17.20;63.00;;;;;;10521315;28;20468;-24
2023/03/04 03:31:23;;;;;;;10.63;6.32;;;17.30;62.40;;;;;;10529137;28;20032;-23
2023/03/04 03:36:25;;;;;;;10.27;6.15;;;17.50;61.40;;;;;;10532725;28;20079;-22
2023/03/04 03:41:27;;;;;;;9.00;4.90;;;17.30;61.90;;;;;;10538482;28;20468;-23
2023/03/04 03:46:30;;;;;;;11.33;5.90;;;17.40;62.40;;;;;;10527046;28;20127;-22
2023/03/04 03:51:32;;;;;;;10.65;5.72;;;17.30;61.00;;;;;;10538115;28;20602;-23
2023/03/04 03:56:34;;;;;;;8.10;5.30;;;16.70;64.70;;;;;;10526373;28;20139;-22
2023/03/04 04:01:37;;;;;;;8.75;5.60;;;17.30;61.40;;;;;;10533714;28;20075;-23
2023/03/04 04:06:39;;;;;;;8.18;4.38;;;17.00;63.20;;;;;;10534634;28;20071;-27
2023/03/04 04:11:40;;;;;;;12.53;5.77;;;16.30;66.80;;;;;;10532168;28;20071;-23
2023/03/04 04:16:44;;;;;;;8.07;4.67;;;17.10;63.00;;;;;;10534851;28;20078;-23
2023/03/04 04:21:46;;;;;;;7.72;4.63;;;15.60;69.10;;;;;;10530562;28;21254;-23
2023/03/04 04:26:48;;;;;;;10.13;4.53;;;15.70;71.10;;;;;;10533286;28;20127;-22
2023/03/04 04:31:51;;;;;;;7.00;2.90;;;16.50;66.40;;;;;;10530974;28;20132;-23
2023/03/04 04:36:53;;;;;;;7.97;3.92;;;15.30;70.00;;;;;;10528038;28;20040;-24
2023/03/04 04:41:55;;;;;;;9.17;4.47;;;16.30;67.30;;;;;;10531249;28;20112;-23
2023/03/04 04:46:58;;;;;;;11.40;4.55;;;14.70;72.80;;;;;;10538944;28;20349;-23
2023/03/04 04:52:00;;;;;;;8.55;3.42;;;16.80;64.60;;;;;;10520115;28;20040;-24
2023/03/04 04:57:02;;;;;;;8.55;3.97;;;16.70;64.50;;;;;;10528162;28;20036;-24
2023/03/04 05:02:06;;;;;;;5.53;3.43;;;16.60;64.10;;;;;;10527148;28;20129;-23
2023/03/04 05:07:08;;;;;;;6.40;2.60;;;16.80;63.10;;;;;;10528016;28;20066;-23
2023/03/04 05:12:10;;;;;;;4.83;3.53;;;16.80;63.20;;;;;;10534444;28;20384;-23
2023/03/04 05:17:13;;;;;;;5.07;1.63;;;17.50;60.10;;;;;;10509419;28;20044;-22
2023/03/04 05:22:15;;;;;;;4.47;2.05;;;16.20;57.60;;;;;;10532458;28;20036;-23
2023/03/04 05:27:17;;;;;;;3.10;2.40;;;17.50;61.10;;;;;;10526982;28;21182;-23
2023/03/04 05:32:20;;;;;;;5.10;2.00;;;16.80;64.40;;;;;;10530214;28;20042;-23
2023/03/04 05:37:22;;;;;;;7.00;2.05;;;16.50;62.60;;;;;;10526050;28;20093;-23
2023/03/04 05:42:24;;;;;;;3.30;1.98;;;17.40;60.20;;;;;;10536386;28;20036;-21
2023/03/04 05:47:27;;;;;;;2.35;1.55;;;17.30;62.60;;;;;;10527484;28;20045;-24
2023/03/04 05:52:29;;;;;;;3.05;1.48;;;17.70;61.00;;;;;;10524055;28;20085;-24
2023/03/04 05:57:30;;;;;;;3.38;1.10;;;17.80;60.50;;;;;;10519821;28;20079;-23
2023/03/04 06:02:33;;;;;;;2.90;1.40;;;17.70;59.20;;;;;;10530379;28;20082;-25
2023/03/04 06:07:36;;;;;;;4.15;1.60;;;17.10;61.70;;;;;;10516100;28;20486;-23
2023/03/04 06:12:38;;;;;;;4.13;1.48;;;17.10;62.80;;;;;;10522832;28;20403;-24
2023/03/04 06:17:42;;;;;;;3.65;1.83;;;17.20;61.90;;;;;;10540136;28;20048;-26
2023/03/04 06:22:44;;;;;;;4.20;1.30;;;18.00;59.40;;;;;;10520512;28;20114;-23
2023/03/04 06:27:46;;;;;;;3.00;1.48;;;17.40;60.90;;;;;;10517435;28;20457;-23
2023/03/04 06:32:49;;;;;;;5.55;1.90;;;17.90;60.00;;;;;;10520815;28;20567;-25
2023/03/04 06:37:51;;;;;;;2.28;1.10;;;17.40;60.00;;;;;;10522181;28;20067;-26
2023/03/04 06:42:53;;;;;;;2.83;1.10;;;18.00;58.40;;;;;;10528807;28;20649;-24
2023/03/04 06:47:56;;;;;;;2.33;1.02;;;17.90;59.80;;;;;;10525887;28;20101;-24
2023/03/04 06:52:58;;;;;;;4.90;1.70;;;18.00;59.20;;;;;;10524623;28;20071;-24
2023/03/04 06:58:00;;;;;;;2.35;1.05;;;16.90;63.30;;;;;;10519538;28;20094;-23
2023/03/04 07:15:10;;;;;;;2.60;1.30;;;18.00;58.40;;;;;;10558716;27;20108;-24
2023/03/04 07:20:12;;;;;;;3.92;1.73;;;17.60;59.90;;;;;;10567121;28;20042;-22
2023/03/04 07:25:16;;;;;;;1.50;1.10;;;17.90;59.60;;;;;;10564314;28;20086;-24
2023/03/04 07:30:20;;;;;;;2.15;1.15;;;17.60;60.30;;;;;;10567659;28;20040;-25
2023/03/04 07:35:22;;;;;;;2.45;0.75;;;17.90;59.60;;;;;;10549372;28;20527;-23
2023/03/04 07:40:23;;;;;;;3.78;1.00;;;17.00;61.90;;;;;;10555925;28;20083;-24
2023/03/04 07:45:27;;;;;;;3.67;0.80;;;17.90;59.30;;;;;;10563882;28;20425;-25
2023/03/04 07:50:29;;;;;;;3.05;0.60;;;16.80;60.10;;;;;;10567953;28;20577;-24
2023/03/04 07:55:30;;;;;;;5.50;1.60;;;15.50;62.20;;;;;;10551462;28;20076;-24
2023/03/04 08:00:34;;;;;;;2.93;1.07;;;17.30;63.30;;;;;;10549168;28;20131;-24
2023/03/04 08:05:38;;;;;;;3.08;1.23;;;15.70;72.60;;;;;;10566356;28;20493;-24
2023/03/04 08:10:40;;;;;;;6.40;1.10;;;17.30;63.40;;;;;;10564007;28;20398;-23
2023/03/04 08:15:43;;;;;;;4.28;0.90;;;17.60;61.60;;;;;;10560428;28;20388;-24
2023/03/04 08:20:46;;;;;;;2.47;0.93;;;17.20;59.50;;;;;;10558989;28;20131;-23
2023/03/04 08:25:48;;;;;;;1.95;0.82;;;17.50;62.50;;;;;;10523894;28;20118;-23
2023/03/04 08:30:55;;;;;;;3.67;0.90;;;15.70;73.40;;;;;;10528881;28;20505;-23
2023/03/04 08:35:57;;;;;;;4.38;1.38;;;15.40;72.70;;;;;;10531564;28;20048;-24
2023/03/04 08:40:59;;;;;;;3.57;1.80;;;16.70;67.40;;;;;;10535268;28;20078;-23
2023/03/04 08:46:03;;;;;;;5.28;1.38;;;15.60;81.50;;;;;;10538241;28;20036;-22
2023/03/04 08:51:08;;;;;;;4.10;2.17;;;14.80;82.40;;;;;;10538507;28;20131;-22
2023/03/04 08:56:11;;;;;;;3.28;0.80;;;17.40;70.10;;;;;;10527799;28;20050;-21
2023/03/04 09:01:15;;;;;;;5.95;2.10;;;15.30;69.20;;;;;;10526179;28;20461;-26
2023/03/04 09:06:18;;;;;;;5.07;1.55;;;17.10;71.80;;;;;;10539249;28;20043;-22
2023/03/04 09:11:20;;;;;;;6.15;1.65;;;15.90;81.00;;;;;;10528202;28;20056;-23
2023/03/04 09:16:23;;;;;;;7.57;1.57;;;17.60;69.60;;;;;;10530858;28;20824;-23
2023/03/04 09:21:25;;;;;;;6.90;1.75;;;15.00;84.10;;;;;;10508978;28;20486;-24
2023/03/04 09:26:29;;;;;;;10.00;2.00;;;17.50;71.70;;;;;;10527897;28;20504;-24
2023/03/04 09:31:33;;;;;;;5.57;1.13;;;16.50;74.40;;;;;;10534793;28;20524;-23
2023/03/04 09:36:35;;;;;;;6.93;1.90;;;14.40;71.70;;;;;;10535922;28;20079;-24
2023/03/04 09:41:41;;;;;;;6.15;1.63;;;16.70;77.80;;;;;;10527539;28;20063;-23
2023/03/04 09:46:46;;;;;;;1.83;1.13;;;16.50;77.60;;;;;;10527089;28;20048;-24
2023/03/04 09:51:55;;;;;;;6.00;1.90;;;16.30;79.40;;;;;;10529525;28;20690;-24
2023/03/04 09:57:04;;;;;;;4.35;2.00;;;15.60;67.70;;;;;;10511447;28;20048;-24
2023/03/04 10:02:20;;;;;;;8.20;2.45;;;16.80;76.50;;;;;;10517105;28;20039;-24
2023/03/04 10:07:27;;;;;;;6.35;1.58;;;17.60;70.30;;;;;;10509826;28;20104;-23
2023/03/04 10:12:30;;;;;;;4.97;1.85;;;16.60;74.70;;;;;;10515025;28;20578;-24
2023/03/04 10:17:37;;;;;;;6.15;1.20;;;17.60;66.20;;;;;;10511695;28;20050;-24
2023/03/04 10:22:44;;;;;;;10.70;1.85;;;15.10;79.00;;;;;;10509155;28;20052;-25
2023/03/04 10:27:51;;;;;;;11.38;2.88;;;15.20;86.30;;;;;;10507363;28;20032;-23
2023/03/04 10:32:54;;;;;;;21.52;4.25;;;16.90;78.20;;;;;;10523548;28;20085;-24
2023/03/04 10:38:01;;;;;;;10.45;2.42;;;17.30;76.00;;;;;;10507104;28;20043;-23
2023/03/04 10:43:06;;;;;;;15.55;2.60;;;15.40;86.60;;;;;;10523790;28;20147;-24
2023/03/04 10:48:20;;;;;;;16.77;4.38;;;16.50;81.70;;;;;;10521639;28;20127;-24
2023/03/04 10:53:29;;;;;;;21.67;3.38;;;17.40;77.50;;;;;;10520297;28;20623;-23
2023/03/04 10:58:31;;;;;;;24.55;5.80;;;17.10;79.20;;;;;;10522114;28;20380;-23
2023/03/04 11:03:37;;;;;;;14.93;4.50;;;16.30;84.90;;;;;;10519689;28;20490;-23
2023/03/04 11:08:40;;;;;;;14.57;2.88;;;17.60;76.60;;;;;;10524638;28;20464;-23
2023/03/04 11:13:52;;;;;;;22.17;3.80;;;17.10;77.70;;;;;;10524812;28;20039;-23
2023/03/04 11:19:04;;;;;;;37.13;4.33;;;15.50;90.20;;;;;;10538068;28;20147;-23
2023/03/04 11:24:12;;;;;;;27.60;5.22;;;16.20;85.70;;;;;;10524745;28;20120;-24
2023/03/04 11:29:18;;;;;;;39.85;4.93;;;15.50;84.90;;;;;;10518026;28;20043;-24
2023/03/04 11:34:31;;;;;;;23.75;4.47;;;15.10;82.70;;;;;;10515615;28;20048;-23
2023/03/04 11:39:37;;;;;;;45.08;8.00;;;14.80;91.00;;;;;;10531420;28;20040;-23
2023/03/04 11:44:40;;;;;;;51.97;8.38;;;16.80;84.60;;;;;;10510729;28;20469;-23
2023/03/04 11:50:25;;;;;;;78.60;9.73;;;15.90;83.10;;;;;;10519582;28;20052;-23
2023/03/04 11:55:37;;;;;;;88.22;13.93;;;16.10;88.00;;;;;;10520981;28;20119;-24
2023/03/04 12:00:42;;;;;;;112.07;15.67;;;17.30;80.40;;;;;;10511555;28;20141;-23
2023/03/04 12:05:56;;;;;;;49.92;8.43;;;16.50;88.20;;;;;;10530631;28;20925;-23
2023/03/04 12:11:03;;;;;;;53.33;6.63;;;14.20;95.90;;;;;;10537553;28;20102;-23
2023/03/04 12:16:20;;;;;;;62.65;10.30;;;15.40;90.10;;;;;;10541776;28;20040;-23
2023/03/04 12:21:38;;;;;;;27.73;5.50;;;15.60;84.40;;;;;;10521974;28;20075;-24
2023/03/04 12:26:45;;;;;;;45.80;6.65;;;16.10;86.30;;;;;;10526546;28;20106;-25
2023/03/04 12:31:53;;;;;;;74.55;11.35;;;16.10;90.30;;;;;;10532794;28;20051;-23
2023/03/04 12:37:11;;;;;;;98.55;16.23;;;17.30;70.70;;;;;;10527952;28;20036;-23
2023/03/04 12:42:23;;;;;;;64.30;11.18;;;16.90;82.90;;;;;;10525353;28;20048;-24
2023/03/04 12:47:36;;;;;;;102.43;18.60;;;17.40;80.20;;;;;;10528001;28;20036;-23
2023/03/04 12:52:51;;;;;;;108.18;16.95;;;17.50;78.20;;;;;;10538124;28;20075;-26
2023/03/04 12:57:55;;;;;;;108.75;16.80;;;17.70;77.80;;;;;;10531324;28;20131;-24
2023/03/04 13:03:08;;;;;;;95.75;16.45;;;16.80;80.90;;;;;;10529885;28;20048;-24
2023/03/04 13:08:25;;;;;;;39.22;6.93;;;17.20;74.70;;;;;;10541047;28;20036;-23
2023/03/04 13:13:37;;;;;;;79.68;14.93;;;15.10;92.70;;;;;;10518892;28;20067;-23
2023/03/04 13:18:39;;;;;;;63.85;11.80;;;17.20;82.50;;;;;;10524019;28;20105;-25
2023/03/04 13:23:42;;;;;;;72.07;11.15;;;18.00;76.10;;;;;;10530563;28;20437;-24
2023/03/04 13:28:44;;;;;;;60.88;9.05;;;18.00;75.40;;;;;;10539943;28;20097;-23
2023/03/04 13:33:56;;;;;;;101.80;13.73;;;17.40;79.60;;;;;;10523121;28;20097;-24
2023/03/04 13:39:03;;;;;;;127.57;16.77;;;17.30;81.70;;;;;;10527856;28;20043;-25
2023/03/04 13:44:58;;;;;;;234.60;32.97;;;17.50;77.90;;;;;;10524075;28;20040;-24
2023/03/04 13:50:24;;;;;;;483.60;68.55;;;17.60;79.30;;;;;;10532676;28;20048;-24
2023/03/04 13:55:37;;;;;;;534.85;76.75;;;17.60;80.10;;;;;;10520276;28;20176;-25
2023/03/04 14:00:49;;;;;;;577.25;85.20;;;17.50;81.60;;;;;;10521345;28;20036;-23
2023/03/04 14:06:09;;;;;;;263.45;38.15;;;17.70;81.10;;;;;;10524556;28;20033;-23
2023/03/04 14:11:16;;;;;;;476.30;63.03;;;17.00;84.60;;;;;;10531057;28;20559;-23
2023/03/04 14:16:20;;;;;;;492.25;70.28;;;17.70;79.80;;;;;;10512503;28;20040;-23
2023/03/04 14:21:22;;;;;;;469.70;68.07;;;18.30;75.30;;;;;;10534645;28;20549;-23
2023/03/04 14:26:25;;;;;;;321.23;43.20;;;18.10;78.30;;;;;;10529530;28;20040;-23
2023/03/04 14:31:29;;;;;;;206.77;31.58;;;16.90;72.80;;;;;;10522962;28;20498;-23
2023/03/04 14:36:35;;;;;;;299.98;41.28;;;17.60;79.90;;;;;;10519438;28;20047;-24
2023/03/04 14:41:42;;;;;;;236.40;36.60;;;17.90;63.80;;;;;;10518666;28;20141;-23
2023/03/04 14:46:45;;;;;;;102.55;15.68;;;16.90;87.10;;;;;;10523316;28;20032;-24
2023/03/04 14:51:50;;;;;;;215.45;30.95;;;17.50;79.40;;;;;;10508094;28;20048;-25
2023/03/04 14:56:53;;;;;;;262.17;35.28;;;18.00;80.20;;;;;;10524849;28;20528;-22
2023/03/04 15:02:19;;;;;;;312.08;44.10;;;18.40;76.00;;;;;;10511453;28;20172;-24
2023/03/04 15:07:29;;;;;;;451.27;61.47;;;18.40;75.50;;;;;;10521794;28;20089;-25
2023/03/04 15:12:34;;;;;;;388.67;51.92;;;18.10;77.90;;;;;;10525709;28;20084;-23
2023/03/04 15:17:38;;;;;;;360.83;48.22;;;17.90;81.00;;;;;;10521103;28;20071;-24
2023/03/04 15:22:59;;;;;;;415.15;54.25;;;16.80;86.60;;;;;;10518249;28;20703;-23
2023/03/04 15:28:03;;;;;;;297.52;41.75;;;18.10;63.20;;;;;;10513631;28;20040;-25
2023/03/04 15:33:10;;;;;;;438.50;66.43;;;17.60;79.40;;;;;;10525375;28;20055;-22
2023/03/04 15:38:13;;;;;;;370.50;52.03;;;18.80;73.00;;;;;;10524301;28;20033;-24
2023/03/04 15:43:18;;;;;;;338.98;44.75;;;18.40;75.00;;;;;;10540859;28;20044;-33
2023/03/04 15:48:21;;;;;;;279.48;39.65;;;18.50;74.90;;;;;;10530149;28;20051;-25
2023/03/04 15:53:26;;;;;;;;;;;19.00;70.50;;;;;;10537089;28;20150;-25
2023/03/04 15:58:31;;;;;;;290.80;39.90;;;19.30;67.10;;;;;;10535802;28;20378;-25
2023/03/04 16:03:33;;;;;;;401.98;53.40;;;19.20;68.50;;;;;;10527914;28;20052;-25
2023/03/04 16:08:34;;;;;;;508.23;72.70;;;19.20;65.40;;;;;;10521605;28;20740;-24
2023/03/04 16:13:38;;;;;;;472.20;64.22;;;19.10;70.80;;;;;;10533006;28;20048;-24
2023/03/04 16:18:40;;;;;;;473.98;69.07;;;19.30;69.10;;;;;;10521765;28;20094;-23
2023/03/04 16:23:44;;;;;;;326.75;47.60;;;19.30;69.60;;;;;;10521323;28;20127;-24
2023/03/04 16:28:48;;;;;;;408.75;59.05;;;18.80;68.20;;;;;;10526854;28;20472;-23
2023/03/04 16:33:50;;;;;;;263.92;38.35;;;19.10;71.50;;;;;;10530332;28;20045;-23
2023/03/04 16:38:54;;;;;;;244.43;35.88;;;19.40;66.90;;;;;;10533157;28;20079;-24
2023/03/04 16:43:59;;;;;;;158.18;23.50;;;19.60;65.50;;;;;;10532325;28;20498;-24
2023/03/04 16:49:01;;;;;;;66.68;13.00;;;19.90;63.10;;;;;;10531311;28;20115;-25
2023/03/04 16:54:03;;;;;;;77.20;12.75;;;20.00;62.00;;;;;;10535180;28;20105;-24
2023/03/04 16:59:06;;;;;;;49.75;9.63;;;20.10;61.30;;;;;;10532243;28;20142;-23
2023/03/04 17:04:08;;;;;;;35.90;7.50;;;19.90;61.00;;;;;;10531642;28;20513;-23
2023/03/04 17:09:10;;;;;;;36.72;6.07;;;20.10;60.20;;;;;;10520376;28;20040;-25
2023/03/04 17:14:13;;;;;;;;;;;20.30;59.90;;;;;;10533960;28;20052;-23
2023/03/04 17:19:15;;;;;;;23.30;4.90;;;20.20;59.60;;;;;;10533106;28;20314;-24
2023/03/04 17:24:17;;;;;;;26.75;4.57;;;20.20;59.30;;;;;;10523041;28;20428;-24
2023/03/04 17:29:20;;;;;;;19.17;3.92;;;20.20;59.40;;;;;;10525929;28;20078;-22
2023/03/04 17:34:22;;;;;;;11.07;3.13;;;20.20;59.10;;;;;;10527082;28;20077;-24
2023/03/04 17:39:25;;;;;;;23.23;3.85;;;20.20;59.00;;;;;;10527377;28;20437;-23
2023/03/04 17:44:28;;;;;;;16.70;3.47;;;20.10;59.20;;;;;;10531223;28;20544;-23
2023/03/04 17:49:30;;;;;;;17.13;2.75;;;20.20;58.70;;;;;;10511909;28;21252;-24
2023/03/04 17:54:32;;;;;;;10.07;2.47;;;19.70;59.70;;;;;;10536565;28;20044;-23
2023/03/04 17:59:35;;;;;;;10.93;1.77;;;20.00;59.60;;;;;;10525624;28;20119;-24
2023/03/04 18:04:37;;;;;;;18.23;3.88;;;19.20;60.30;;;;;;10526764;28;20047;-23
2023/03/04 18:09:39;;;;;;;20.35;3.70;;;19.10;63.50;;;;;;10520549;28;20191;-23
2023/03/04 18:14:43;;;;;;;21.52;4.15;;;19.60;61.00;;;;;;10532497;28;20396;-24
2023/03/04 18:19:45;;;;;;;19.92;3.88;;;19.90;60.10;;;;;;10543745;28;20067;-24
2023/03/04 18:24:47;;;;;;;17.08;3.25;;;19.80;59.90;;;;;;10537156;28;20072;-24
2023/03/04 18:29:50;;;;;;;40.92;6.50;;;19.90;59.80;;;;;;10543510;28;20336;-23
2023/03/04 18:34:52;;;;;;;35.78;6.97;;;19.10;62.10;;;;;;10535170;28;20089;-22
2023/03/04 18:39:53;;;;;;;51.50;13.23;;;18.10;65.70;;;;;;10529979;28;20070;-24
2023/03/04 18:44:57;;;;;;;53.70;13.20;;;17.40;71.50;;;;;;10525786;28;20036;-24
2023/03/04 18:49:59;;;;;;;51.15;13.57;;;18.70;66.70;;;;;;10541128;28;20457;-25
2023/03/04 18:55:00;;;;;;;45.75;11.85;;;18.70;67.00;;;;;;10521031;28;20105;-24
2023/03/04 19:00:05;;;;;;;46.33;12.77;;;17.40;73.40;;;;;;10525310;28;20404;-23
2023/03/04 19:05:13;;;;;;;43.55;11.85;;;17.80;73.50;;;;;;10522064;28;20100;-25
2023/03/04 19:10:15;;;;;;;42.45;12.05;;;18.10;72.90;;;;;;10520927;28;20127;-24
2023/03/04 19:15:19;;;;;;;28.52;9.15;;;18.70;68.10;;;;;;10532055;28;20119;-22
2023/03/04 19:20:21;;;;;;;23.85;5.47;;;19.50;63.50;;;;;;10532985;28;20411;-23
2023/03/04 19:25:23;;;;;;;9.90;2.85;;;19.70;62.70;;;;;;10523119;28;20048;-23
2023/03/04 19:30:26;;;;;;;15.45;3.13;;;19.70;63.00;;;;;;10525121;28;20477;-25
2023/03/04 19:35:28;;;;;;;13.65;2.95;;;19.50;64.60;;;;;;10531757;28;20044;-24
2023/03/04 19:40:30;;;;;;;9.60;3.33;;;18.70;56.70;;;;;;10533984;28;20048;-24
2023/03/04 19:45:33;;;;;;;13.32;2.38;;;19.60;63.00;;;;;;10524219;28;20068;-25
2023/03/04 19:50:35;;;;;;;10.18;2.58;;;19.00;65.20;;;;;;10527239;28;20071;-24
2023/03/04 19:55:38;;;;;;;11.07;2.38;;;19.70;63.80;;;;;;10524023;28;20067;-23
2023/03/04 20:00:41;;;;;;;11.60;2.47;;;19.00;66.80;;;;;;10521964;28;20117;-25
2023/03/04 20:05:43;;;;;;;8.70;2.60;;;18.80;66.70;;;;;;10518584;28;20048;-25
2023/03/04 20:10:45;;;;;;;10.15;1.77;;;19.70;63.80;;;;;;10524822;28;20048;-25
2023/03/04 20:15:48;;;;;;;10.10;2.00;;;19.70;63.60;;;;;;10518048;28;20431;-25
2023/03/04 20:20:51;;;;;;;13.90;1.90;;;19.40;64.60;;;;;;10526846;28;20474;-33
2023/03/04 20:25:54;;;;;;;10.35;2.53;;;19.80;62.50;;;;;;10528191;28;20045;-24
2023/03/04 20:31:11;;;;;;;8.75;1.77;;;19.40;64.00;;;;;;10528027;28;20051;-25
2023/03/04 20:36:13;;;;;;;6.22;1.95;;;19.70;62.50;;;;;;10530040;28;20396;-23
2023/03/04 20:41:15;;;;;;;6.50;1.40;;;19.20;59.70;;;;;;10534070;28;20068;-23
2023/03/04 20:46:36;;;;;;;14.13;1.80;;;19.70;62.00;;;;;;10530425;28;20127;-24
2023/03/04 20:51:39;;;;;;;6.30;1.52;;;19.70;62.30;;;;;;10529227;28;20426;-23
2023/03/04 20:56:41;;;;;;;6.53;1.60;;;19.70;62.00;;;;;;10526349;28;20053;-24
2023/03/04 21:01:46;;;;;;;9.50;2.05;;;19.80;61.30;;;;;;10528930;28;20052;-27
2023/03/04 21:06:50;;;;;;;9.40;1.75;;;19.80;61.00;;;;;;10527580;28;20048;-24
2023/03/04 21:11:52;;;;;;;12.13;2.03;;;19.80;60.80;;;;;;10526654;28;20043;-24
2023/03/04 21:16:56;;;;;;;;;;;19.80;60.60;;;;;;10532644;28;20131;-23
2023/03/04 21:22:00;;;;;;;6.40;1.30;;;19.80;60.40;;;;;;10525850;28;19916;-24
2023/03/04 21:27:03;;;;;;;6.47;1.20;;;19.80;60.30;;;;;;10531080;28;20043;-23
2023/03/04 21:32:11;;;;;;;7.10;1.67;;;19.70;60.40;;;;;;10525366;28;20044;-24
2023/03/04 21:37:13;;;;;;;6.25;1.35;;;19.80;60.20;;;;;;10523801;28;20056;-25
2023/03/04 21:42:14;;;;;;;5.30;1.05;;;19.70;60.30;;;;;;10521436;28;20071;-25
2023/03/04 21:47:18;;;;;;;4.68;0.90;;;19.70;60.30;;;;;;10517451;28;20508;-24
2023/03/04 21:52:21;;;;;;;4.47;1.27;;;19.60;61.20;;;;;;10520523;28;20592;-23
2023/03/04 21:57:23;;;;;;;4.50;1.05;;;19.60;60.60;;;;;;10525480;28;20071;-23
2023/03/04 22:02:26;;;;;;;4.78;1.25;;;18.60;64.50;;;;;;10523527;28;20132;-25
2023/03/04 22:07:28;;;;;;;3.97;0.90;;;19.10;62.20;;;;;;10534396;28;20422;-26
2023/03/04 22:12:30;;;;;;;4.47;0.90;;;19.20;61.70;;;;;;10532459;28;20129;-24
2023/03/04 22:17:33;;;;;;;4.03;1.00;;;19.10;61.40;;;;;;10520365;28;20064;-24
2023/03/04 22:22:35;;;;;;;5.90;1.20;;;19.20;61.00;;;;;;10535799;28;20124;-23
2023/03/04 22:27:37;;;;;;;3.25;0.80;;;19.40;60.40;;;;;;10534062;28;20036;-22
2023/03/04 22:32:43;;;;;;;3.20;1.48;;;19.40;60.10;;;;;;10525666;28;20037;-24
2023/03/04 22:37:45;;;;;;;3.25;1.20;;;19.40;60.00;;;;;;10522256;28;20074;-24
2023/03/04 22:42:47;;;;;;;5.57;1.45;;;19.40;59.80;;;;;;10514282;28;20052;-22
2023/03/04 22:47:52;;;;;;;2.10;0.73;;;19.40;59.90;;;;;;10507937;28;20452;-24
2023/03/04 22:52:54;;;;;;;6.22;1.13;;;18.60;61.20;;;;;;10543508;28;20048;-23
2023/03/04 22:57:55;;;;;;;2.42;0.85;;;19.20;60.30;;;;;;10521927;28;20123;-24
2023/03/04 23:02:59;;;;;;;4.55;1.63;;;19.20;59.90;;;;;;10521790;28;20126;-24
2023/03/04 23:08:01;;;;;;;2.33;0.77;;;19.20;59.90;;;;;;10532797;28;20059;-23
2023/03/04 23:13:03;;;;;;;4.88;1.15;;;18.70;61.40;;;;;;10535383;28;20402;-23
2023/03/04 23:18:06;;;;;;;2.88;0.98;;;18.40;62.70;;;;;;10520571;28;20086;-23
2023/03/04 23:23:08;;;;;;;3.22;0.88;;;18.00;63.40;;;;;;10529406;28;20170;-23
2023/03/04 23:28:10;;;;;;;6.65;1.17;;;18.60;60.80;;;;;;10525287;28;20042;-23
2023/03/04 23:33:13;;;;;;;2.67;0.60;;;18.80;60.90;;;;;;10525198;28;20085;-23
2023/03/04 23:38:15;;;;;;;2.05;0.55;;;18.70;61.00;;;;;;10519843;28;20527;-26
2023/03/04 23:43:17;;;;;;;3.03;0.90;;;19.00;60.10;;;;;;10519823;28;20082;-23
2023/03/04 23:48:20;;;;;;;3.40;0.85;;;19.00;60.00;;;;;;10517310;28;20040;-23
2023/03/04 23:53:22;;;;;;;3.42;0.77;;;19.00;59.70;;;;;;10512415;28;20147;-26
2023/03/04 23:58:24;;;;;;;2.70;0.80;;;19.00;59.60;;;;;;10530544;28;20048;-27
